Time;durP1;ratioP1;P1;durP2;ratioP2;P2;SDS_P1;SDS_P2;PMS_P1;PMS_P2;Temp;Humidity;BMP_temperature;BMP_pressure;BME280_temperature;BME280_humidity;BME280_pressure;Samples;Min_cycle;Max_cycle;Signal;HPM_P1;HPM_P2
2022/10/03 00:00:22;;;;;;;12.15;2.97;;;7.30;99.90;;;;;;5045790;28;20053;-31
2022/10/03 00:03:07;;;;;;;31.08;3.40;;;7.30;99.90;;;;;;5055065;28;20041;-31
2022/10/03 00:05:44;;;;;;;21.67;2.83;;;7.30;99.90;;;;;;5055921;28;20045;-31
2022/10/03 00:08:40;;;;;;;17.85;2.83;;;7.30;99.90;;;;;;5037984;28;20055;-31
2022/10/03 00:11:26;;;;;;;24.83;2.97;;;7.40;99.90;;;;;;5053225;28;20049;-31
2022/10/03 00:14:30;;;;;;;26.67;3.10;;;7.50;99.90;;;;;;5054507;28;20088;-31
2022/10/03 00:17:01;;;;;;;22.35;3.13;;;7.70;99.90;;;;;;5054840;28;20068;-31
2022/10/03 00:19:42;;;;;;;20.92;4.57;;;7.80;99.90;;;;;;5053187;28;20052;-32
2022/10/03 00:22:26;;;;;;;27.80;4.55;;;8.10;99.90;;;;;;5054789;28;20045;-31
2022/10/03 00:24:54;;;;;;;18.08;4.53;;;8.30;99.90;;;;;;5054689;28;20513;-31
2022/10/03 00:27:48;;;;;;;18.27;3.17;;;8.40;99.90;;;;;;5054561;28;20052;-31
2022/10/03 00:30:19;;;;;;;28.70;3.92;;;8.40;99.90;;;;;;5054694;28;20134;-31
2022/10/03 00:32:45;;;;;;;20.20;3.10;;;8.40;99.90;;;;;;5055316;28;20086;-31
2022/10/03 00:35:38;;;;;;;29.15;4.28;;;8.50;99.90;;;;;;5054444;28;20432;-32
2022/10/03 00:38:28;;;;;;;24.33;3.53;;;8.50;99.90;;;;;;5054219;28;20065;-32
2022/10/03 00:41:20;;;;;;;22.95;3.25;;;8.50;99.90;;;;;;5053219;28;20195;-32
2022/10/03 00:44:25;;;;;;;15.27;2.85;;;8.50;99.90;;;;;;5054014;28;20072;-31
2022/10/03 00:47:18;;;;;;;25.80;3.47;;;8.40;99.90;;;;;;5054697;28;20045;-31
2022/10/03 00:50:02;;;;;;;22.13;2.30;;;8.40;99.90;;;;;;5053921;28;20506;-34
2022/10/03 00:52:49;;;;;;;19.00;3.40;;;8.30;99.90;;;;;;5073407;28;20521;-32
2022/10/03 00:55:42;;;;;;;18.00;2.38;;;8.20;99.90;;;;;;5074059;28;20049;-31
2022/10/03 00:58:16;;;;;;;16.83;2.55;;;8.10;99.90;;;;;;5074667;28;20049;-32
2022/10/03 01:00:49;;;;;;;23.38;3.40;;;7.90;99.90;;;;;;5071126;28;21054;-32
2022/10/03 01:03:47;;;;;;;18.52;2.85;;;7.80;99.90;;;;;;5053757;28;20076;-31
2022/10/03 01:06:23;;;;;;;17.33;2.00;;;7.60;99.90;;;;;;5053511;28;20056;-31
2022/10/03 01:09:17;;;;;;;15.60;2.08;;;7.40;99.90;;;;;;5053069;28;20445;-31
2022/10/03 01:11:45;;;;;;;14.88;1.83;;;7.30;99.90;;;;;;5053472;28;20095;-31
2022/10/03 01:14:13;;;;;;;12.10;2.00;;;7.20;99.90;;;;;;5054367;28;20075;-31
2022/10/03 01:17:00;;;;;;;20.45;1.92;;;7.20;99.90;;;;;;5052574;28;20067;-31
2022/10/03 01:19:38;;;;;;;23.48;3.28;;;7.20;99.90;;;;;;5052877;28;20044;-32
2022/10/03 01:22:40;;;;;;;28.00;2.50;;;7.10;99.90;;;;;;5054376;28;20491;-31
2022/10/03 01:25:29;;;;;;;22.13;2.67;;;7.10;99.90;;;;;;5053704;28;20049;-31
2022/10/03 01:31:12;;;;;;;24.85;3.03;;;7.10;99.90;;;;;;5054213;28;20106;-31
2022/10/03 01:33:59;;;;;;;16.10;2.38;;;7.30;99.90;;;;;;5060276;28;20044;-31
2022/10/03 01:36:50;;;;;;;20.20;3.63;;;7.40;99.90;;;;;;5072759;28;20071;-32
2022/10/03 01:39:49;;;;;;;21.27;3.70;;;7.50;99.90;;;;;;5073529;28;20494;-31
2022/10/03 01:42:37;;;;;;;17.35;2.35;;;7.60;99.90;;;;;;5054980;28;20106;-31
2022/10/03 01:45:30;;;;;;;18.30;2.95;;;7.70;99.90;;;;;;5054378;28;20080;-31
2022/10/03 01:48:21;;;;;;;13.98;2.78;;;7.80;99.90;;;;;;5053519;28;20056;-31
2022/10/03 01:51:20;;;;;;;16.25;2.78;;;8.00;99.90;;;;;;5049584;28;20175;-32
2022/10/03 01:54:06;;;;;;;16.75;2.50;;;8.10;99.90;;;;;;5052394;28;20461;-32
2022/10/03 01:56:44;;;;;;;18.42;3.30;;;8.20;99.90;;;;;;5053429;28;20483;-32
2022/10/03 01:59:18;;;;;;;15.52;2.50;;;8.40;99.90;;;;;;5053401;28;20045;-32
2022/10/03 02:02:02;;;;;;;27.80;3.70;;;8.50;99.90;;;;;;5053380;28;20049;-31
2022/10/03 02:04:44;;;;;;;15.38;2.58;;;8.60;99.90;;;;;;5053828;28;20045;-31
2022/10/03 02:07:25;;;;;;;22.98;3.30;;;8.70;99.90;;;;;;5054156;28;20048;-31
2022/10/03 02:09:59;;;;;;;25.60;3.28;;;8.70;99.90;;;;;;5053243;28;20144;-32
2022/10/03 02:12:51;;;;;;;26.65;3.15;;;8.60;99.90;;;;;;5053208;28;20372;-32
2022/10/03 02:15:44;;;;;;;22.23;3.38;;;8.60;99.90;;;;;;5052866;28;20064;-31
2022/10/03 02:18:16;;;;;;;15.32;2.85;;;8.60;99.90;;;;;;5054728;28;20174;-32
2022/10/03 02:20:53;;;;;;;22.83;3.45;;;8.50;99.90;;;;;;5057109;28;20053;-32
2022/10/03 02:23:40;;;;;;;17.30;2.72;;;8.50;99.90;;;;;;5057018;28;20088;-31
2022/10/03 02:26:34;;;;;;;15.00;2.75;;;8.50;99.90;;;;;;5057089;28;20099;-32
2022/10/03 02:29:30;;;;;;;18.60;2.67;;;8.50;99.90;;;;;;5056843;28;20483;-32
2022/10/03 02:32:35;;;;;;;14.50;2.75;;;8.60;99.90;;;;;;5056775;28;20052;-31
2022/10/03 02:35:09;;;;;;;20.50;3.17;;;8.60;99.90;;;;;;5056799;28;20052;-32
2022/10/03 02:37:47;;;;;;;13.40;2.30;;;8.60;99.90;;;;;;5057015;28;20053;-32
2022/10/03 02:40:27;;;;;;;15.90;2.58;;;8.70;99.90;;;;;;5056669;28;20470;-32
2022/10/03 02:43:16;;;;;;;22.13;3.45;;;8.80;99.90;;;;;;5057217;28;20044;-32
2022/10/03 02:46:24;;;;;;;19.67;2.92;;;8.80;99.90;;;;;;5055138;28;20045;-32
2022/10/03 02:49:29;;;;;;;20.42;3.10;;;8.90;99.90;;;;;;5055818;28;20115;-31
2022/10/03 02:52:04;;;;;;;18.25;2.38;;;9.00;99.90;;;;;;5035367;28;20063;-32
2022/10/03 02:54:39;;;;;;;22.15;3.05;;;9.10;99.90;;;;;;5056646;28;20072;-31
2022/10/03 02:57:31;;;;;;;19.70;2.92;;;9.30;99.90;;;;;;5056250;28;20129;-31
2022/10/03 03:00:06;;;;;;;18.65;2.55;;;9.40;99.90;;;;;;5056897;28;20114;-32
2022/10/03 03:03:00;;;;;;;22.17;3.20;;;9.50;99.90;;;;;;5056483;28;20463;-32
2022/10/03 03:05:32;;;;;;;22.58;3.22;;;9.60;99.90;;;;;;5056539;28;20110;-32
2022/10/03 03:08:13;;;;;;;14.48;2.00;;;9.60;99.90;;;;;;5056246;28;20056;-31
2022/10/03 03:11:01;;;;;;;10.80;2.42;;;9.70;99.90;;;;;;5059645;28;20052;-32
2022/10/03 03:13:51;;;;;;;14.10;2.03;;;9.70;99.90;;;;;;5056678;28;20044;-32
2022/10/03 03:16:32;;;;;;;17.10;2.38;;;9.70;99.90;;;;;;5056045;28;20049;-32
2022/10/03 03:19:31;;;;;;;16.00;2.63;;;9.70;99.90;;;;;;5056004;28;20060;-32
2022/10/03 03:22:24;;;;;;;13.82;2.67;;;9.60;99.90;;;;;;5076165;28;20410;-32
2022/10/03 03:25:17;;;;;;;16.35;2.15;;;9.60;99.90;;;;;;5065680;28;20066;-32
2022/10/03 03:28:04;;;;;;;10.85;1.98;;;9.60;99.90;;;;;;5076141;28;20048;-32
2022/10/03 03:30:50;;;;;;;18.15;2.70;;;9.60;99.90;;;;;;5069801;28;20491;-32
2022/10/03 03:33:30;;;;;;;17.15;2.08;;;9.50;99.90;;;;;;5055333;28;20068;-32
2022/10/03 03:36:21;;;;;;;17.42;2.20;;;9.50;99.90;;;;;;5055962;28;20049;-32
2022/10/03 03:38:56;;;;;;;22.75;2.33;;;9.50;99.90;;;;;;5054331;28;20570;-32
2022/10/03 03:41:59;;;;;;;15.50;1.88;;;9.60;99.90;;;;;;5055854;28;20056;-32
2022/10/03 03:44:34;;;;;;;13.40;1.80;;;9.70;99.90;;;;;;5054929;28;20045;-32
2022/10/03 03:47:21;;;;;;;16.50;2.22;;;9.60;99.90;;;;;;5055028;28;20052;-32
2022/10/03 03:50:13;;;;;;;22.63;2.05;;;9.70;99.90;;;;;;5056254;28;20394;-31
2022/10/03 03:53:12;;;;;;;16.85;2.22;;;9.70;99.90;;;;;;5055176;28;20447;-32
2022/10/03 03:56:02;;;;;;;16.73;2.28;;;9.80;99.90;;;;;;5055281;28;20049;-32
2022/10/03 03:58:57;;;;;;;18.60;2.85;;;9.80;99.90;;;;;;5054289;28;20513;-31
2022/10/03 04:01:32;;;;;;;11.98;1.98;;;9.80;99.90;;;;;;5055061;28;20088;-33
2022/10/03 04:04:22;;;;;;;13.98;3.15;;;9.70;99.90;;;;;;5054509;28;20049;-32
2022/10/03 04:07:06;;;;;;;22.73;2.13;;;9.80;99.90;;;;;;5055052;28;20056;-32
2022/10/03 04:09:37;;;;;;;18.33;1.75;;;9.80;99.90;;;;;;5055586;28;20051;-31
2022/10/03 04:12:24;;;;;;;14.27;1.92;;;9.90;99.90;;;;;;5053974;28;20049;-32
2022/10/03 04:15:31;;;;;;;18.33;2.53;;;9.70;99.90;;;;;;5053190;28;20067;-32
2022/10/03 04:21:34;;;;;;;14.55;2.15;;;9.60;99.90;;;;;;5054762;28;20514;-32
2022/10/03 04:24:30;;;;;;;16.25;1.85;;;9.60;99.90;;;;;;5054518;28;20049;-32
2022/10/03 04:27:17;;;;;;;10.18;2.13;;;9.60;99.90;;;;;;5054688;28;20063;-31
2022/10/03 04:29:54;;;;;;;13.45;1.60;;;9.60;99.90;;;;;;5053940;28;20080;-32
2022/10/03 04:32:23;;;;;;;13.40;2.08;;;9.60;99.90;;;;;;5054878;28;20045;-32
2022/10/03 04:35:11;;;;;;;11.27;1.50;;;9.60;99.90;;;;;;5053819;28;20492;-32
2022/10/03 04:37:49;;;;;;;17.77;1.80;;;9.50;99.90;;;;;;5054533;28;20064;-32
2022/10/03 04:40:40;;;;;;;18.83;2.22;;;9.50;99.90;;;;;;5054241;28;20053;-32
2022/10/03 04:43:51;;;;;;;13.68;2.55;;;9.50;99.90;;;;;;5054542;28;20467;-31
2022/10/03 04:46:26;;;;;;;15.90;2.30;;;9.50;99.90;;;;;;5051058;28;20064;-33
2022/10/03 04:48:59;;;;;;;14.57;1.88;;;9.40;99.90;;;;;;5054078;28;20103;-32
2022/10/03 04:51:36;;;;;;;14.98;1.83;;;9.40;99.90;;;;;;5055082;28;20067;-32
2022/10/03 04:54:15;;;;;;;10.38;1.70;;;9.30;99.90;;;;;;5054025;28;20055;-32
2022/10/03 04:57:06;;;;;;;14.70;2.03;;;9.30;99.90;;;;;;5055644;28;20045;-32
2022/10/03 04:59:41;;;;;;;17.27;2.20;;;9.10;99.90;;;;;;5053165;28;20053;-31
2022/10/03 05:02:07;;;;;;;20.30;1.75;;;9.00;99.90;;;;;;5053967;28;20091;-31
2022/10/03 05:04:57;;;;;;;14.95;2.35;;;8.90;99.90;;;;;;5053889;28;20426;-31
2022/10/03 05:07:41;;;;;;;17.13;2.58;;;8.80;99.90;;;;;;5053637;28;20132;-32
2022/10/03 05:10:27;;;;;;;15.32;2.67;;;8.80;99.90;;;;;;5053947;28;20045;-31
2022/10/03 05:12:58;;;;;;;13.32;1.88;;;8.70;99.90;;;;;;5053149;28;20498;-31
2022/10/03 05:15:33;;;;;;;17.45;1.80;;;8.60;99.90;;;;;;5054321;28;20055;-32
2022/10/03 05:18:25;;;;;;;8.70;1.38;;;8.60;99.90;;;;;;5054409;28;20430;-31
2022/10/03 05:21:05;;;;;;;19.58;3.67;;;8.40;99.90;;;;;;5053085;28;20480;-31
2022/10/03 05:23:49;;;;;;;15.70;2.53;;;8.30;99.90;;;;;;5054510;28;20048;-31
2022/10/03 05:26:24;;;;;;;9.10;1.60;;;8.20;99.90;;;;;;5053987;28;20460;-31
2022/10/03 05:29:14;;;;;;;15.15;1.50;;;8.10;99.90;;;;;;5053679;28;20479;-31
2022/10/03 05:31:52;;;;;;;16.00;1.98;;;7.90;99.90;;;;;;5053026;28;20053;-31
2022/10/03 05:34:43;;;;;;;15.52;2.33;;;7.70;99.90;;;;;;5054188;28;20049;-31
2022/10/03 05:37:34;;;;;;;14.38;1.90;;;7.60;99.90;;;;;;5052194;28;20057;-31
2022/10/03 05:40:02;;;;;;;12.95;2.38;;;7.50;99.90;;;;;;5053658;28;20064;-31
2022/10/03 05:42:36;;;;;;;14.73;1.77;;;7.50;99.90;;;;;;5036777;28;20052;-31
2022/10/03 05:45:23;;;;;;;14.48;2.17;;;7.40;99.90;;;;;;5056275;28;20044;-31
2022/10/03 05:47:58;;;;;;;14.70;2.58;;;7.40;99.90;;;;;;5053529;28;20488;-30
2022/10/03 05:50:29;;;;;;;13.32;2.92;;;7.40;99.90;;;;;;5055171;28;20049;-31
2022/10/03 05:52:58;;;;;;;14.38;3.00;;;7.50;99.90;;;;;;5064422;28;20063;-31
2022/10/03 05:55:27;;;;;;;19.50;2.85;;;7.50;99.90;;;;;;5066735;28;20446;-31
2022/10/03 05:58:21;;;;;;;17.42;3.33;;;7.50;99.90;;;;;;5070240;28;20045;-31
2022/10/03 06:00:47;;;;;;;;;;;7.50;99.90;;;;;;5070216;28;20051;-31
2022/10/03 06:03:38;;;;;;;19.75;2.78;;;7.40;99.90;;;;;;5076379;28;19925;-31
2022/10/03 06:06:25;;;;;;;20.20;3.13;;;7.40;99.90;;;;;;5057660;28;20048;-31
2022/10/03 06:09:09;;;;;;;25.48;3.40;;;7.40;99.90;;;;;;5058229;28;20098;-31
2022/10/03 06:12:02;;;;;;;17.33;3.40;;;7.40;99.90;;;;;;5055764;28;20087;-31
2022/10/03 06:14:49;;;;;;;25.23;3.33;;;7.40;99.90;;;;;;5062929;28;20552;-31
2022/10/03 06:17:32;;;;;;;22.05;3.28;;;7.40;99.90;;;;;;5077749;28;20051;-30
2022/10/03 06:20:28;;;;;;;24.27;3.58;;;7.30;99.90;;;;;;5061234;28;20051;-31
2022/10/03 06:23:00;;;;;;;21.05;3.08;;;7.40;99.90;;;;;;5076910;28;20041;-32
2022/10/03 06:25:28;;;;;;;19.58;3.83;;;7.30;99.90;;;;;;5077767;28;20052;-31
2022/10/03 06:28:42;;;;;;;18.77;4.18;;;7.40;99.90;;;;;;5076846;28;20052;-31
2022/10/03 06:31:54;;;;;;;15.82;3.63;;;7.40;99.90;;;;;;5048286;28;20056;-31
2022/10/03 06:34:57;;;;;;;11.93;3.15;;;7.50;99.90;;;;;;5039996;28;20418;-31
2022/10/03 06:37:45;;;;;;;15.23;3.37;;;7.60;99.90;;;;;;5073288;28;20142;-31
2022/10/03 06:40:26;;;;;;;15.73;3.38;;;7.50;99.90;;;;;;5055660;28;20179;-31
2022/10/03 06:43:10;;;;;;;18.65;3.25;;;7.60;99.90;;;;;;5055353;28;20064;-31
2022/10/03 06:45:51;;;;;;;18.70;3.72;;;7.80;99.90;;;;;;5055396;28;20049;-30
2022/10/03 06:48:35;;;;;;;20.60;4.18;;;7.80;99.90;;;;;;5056570;28;20056;-31
2022/10/03 06:51:25;;;;;;;19.17;3.60;;;7.90;99.90;;;;;;5056542;28;20514;-31
2022/10/03 06:54:18;;;;;;;23.48;4.20;;;8.00;99.90;;;;;;5056347;28;20045;-31
2022/10/03 06:57:03;;;;;;;14.77;3.60;;;7.90;99.90;;;;;;5057275;28;20135;-31
2022/10/03 06:59:56;;;;;;;24.10;3.17;;;8.00;99.90;;;;;;5055357;28;20513;-30
2022/10/03 07:02:46;;;;;;;11.03;3.13;;;8.00;99.90;;;;;;5055669;28;20069;-31
2022/10/03 07:05:22;;;;;;;17.20;4.05;;;8.10;99.90;;;;;;5055934;28;20049;-31
2022/10/03 07:08:24;;;;;;;17.88;4.00;;;8.20;99.90;;;;;;5056793;28;20087;-31
2022/10/03 07:11:14;;;;;;;15.75;3.08;;;8.30;99.90;;;;;;5055769;28;20368;-32
2022/10/03 07:13:49;;;;;;;16.02;3.53;;;8.40;99.90;;;;;;5056709;28;20464;-31
2022/10/03 07:16:25;;;;;;;15.88;3.63;;;8.70;99.90;;;;;;5056147;28;20056;-31
2022/10/03 07:19:21;;;;;;;18.67;3.72;;;8.90;99.90;;;;;;5056311;28;20500;-31
2022/10/03 07:22:30;;;;;;;17.08;3.85;;;9.20;99.90;;;;;;5056314;28;20053;-31
2022/10/03 07:25:12;;;;;;;17.25;4.15;;;9.40;99.90;;;;;;5056220;28;20075;-32
2022/10/03 07:27:50;;;;;;;17.55;4.10;;;9.60;99.90;;;;;;5056442;28;20064;-32
2022/10/03 07:30:17;;;;;;;16.88;3.53;;;9.90;99.90;;;;;;5056383;28;20142;-32
2022/10/03 07:33:01;;;;;;;13.70;3.60;;;10.40;99.90;;;;;;5055946;28;20406;-31
2022/10/03 07:39:01;;;;;;;14.63;3.15;;;10.80;99.90;;;;;;5055506;28;20060;-32
2022/10/03 07:41:51;;;;;;;21.10;3.45;;;11.10;99.90;;;;;;5054942;28;20053;-32
2022/10/03 07:44:39;;;;;;;21.17;3.30;;;11.30;99.90;;;;;;5055199;28;20511;-33
2022/10/03 07:47:26;;;;;;;14.10;2.70;;;11.50;99.90;;;;;;5055774;28;20045;-32
2022/10/03 07:49:54;;;;;;;15.80;2.67;;;11.70;99.90;;;;;;5055386;28;20076;-33
2022/10/03 07:52:41;;;;;;;7.85;1.50;;;11.80;99.90;;;;;;5055039;28;20384;-33
2022/10/03 07:55:37;;;;;;;14.68;1.73;;;12.00;99.90;;;;;;5055214;28;20131;-33
2022/10/03 07:58:03;;;;;;;10.13;1.35;;;12.10;99.90;;;;;;5055870;28;20048;-32
2022/10/03 08:00:54;;;;;;;10.02;1.73;;;12.30;99.90;;;;;;5055241;28;20502;-33
2022/10/03 08:03:45;;;;;;;14.07;1.60;;;12.40;99.90;;;;;;5054264;28;20041;-32
2022/10/03 08:06:14;;;;;;;12.30;2.50;;;12.60;99.90;;;;;;5054694;28;20512;-32
2022/10/03 08:08:52;;;;;;;10.27;1.98;;;12.70;99.90;;;;;;5054092;28;20159;-32
2022/10/03 08:12:10;;;;;;;9.95;1.80;;;12.90;99.90;;;;;;5055030;28;20057;-33
2022/10/03 08:14:56;;;;;;;11.88;1.65;;;13.00;99.90;;;;;;5015775;28;20136;-33
2022/10/03 08:17:53;;;;;;;16.58;1.70;;;13.20;99.90;;;;;;5032805;28;20057;-32
2022/10/03 08:20:50;;;;;;;13.32;1.92;;;13.40;99.90;;;;;;5051294;28;20079;-32
2022/10/03 08:23:47;;;;;;;9.82;2.03;;;13.50;99.90;;;;;;5054960;28;20149;-32
2022/10/03 08:26:21;;;;;;;13.13;0.80;;;13.60;99.90;;;;;;5054663;28;20049;-32
2022/10/03 08:29:07;;;;;;;15.40;2.22;;;13.70;99.90;;;;;;5054609;28;20395;-32
2022/10/03 08:31:58;;;;;;;16.65;2.15;;;13.90;99.90;;;;;;5037115;28;20609;-32
2022/10/03 08:34:45;;;;;;;11.85;1.48;;;14.00;99.90;;;;;;5054202;28;20045;-33
2022/10/03 08:37:29;;;;;;;9.70;1.35;;;14.10;99.90;;;;;;5036809;28;20106;-32
2022/10/03 08:40:39;;;;;;;15.60;1.95;;;14.30;99.90;;;;;;5055076;28;20053;-33
2022/10/03 08:44:02;;;;;;;10.07;1.33;;;14.40;99.90;;;;;;5032066;28;20046;-33
2022/10/03 08:47:08;;;;;;;8.35;1.13;;;14.50;99.90;;;;;;5054315;28;20055;-32
2022/10/03 08:50:08;;;;;;;8.73;2.28;;;14.70;99.90;;;;;;5054909;28;20486;-33
2022/10/03 08:52:59;;;;;;;11.68;1.27;;;14.80;99.90;;;;;;5054131;28;20049;-33
2022/10/03 08:55:34;;;;;;;12.85;1.75;;;14.90;99.90;;;;;;5054144;28;20111;-33
2022/10/03 08:58:48;;;;;;;10.90;1.58;;;15.00;99.90;;;;;;5054440;28;20049;-33
2022/10/03 09:01:35;;;;;;;10.05;1.80;;;14.90;99.90;;;;;;5034667;28;20480;-32
2022/10/03 09:04:43;;;;;;;8.73;1.30;;;15.00;99.90;;;;;;5052755;28;20049;-34
2022/10/03 09:07:11;;;;;;;7.82;1.27;;;15.70;99.90;;;;;;5053038;28;20053;-32
2022/10/03 09:09:46;;;;;;;8.20;1.58;;;15.70;99.90;;;;;;5053991;28;20211;-33
2022/10/03 09:12:41;;;;;;;9.80;1.90;;;16.40;99.90;;;;;;5053596;28;20122;-33
2022/10/03 09:15:51;;;;;;;7.07;1.08;;;16.60;99.90;;;;;;5054135;28;20057;-32
2022/10/03 09:18:40;;;;;;;9.80;1.50;;;16.80;99.90;;;;;;5053882;28;20045;-32
2022/10/03 09:21:35;;;;;;;8.90;1.10;;;16.90;99.90;;;;;;5053892;28;20051;-32
2022/10/03 09:24:57;;;;;;;10.43;1.77;;;17.30;99.90;;;;;;5054255;28;20387;-34
2022/10/03 09:27:42;;;;;;;8.07;1.52;;;17.40;99.90;;;;;;5031145;28;20050;-33
2022/10/03 09:30:22;;;;;;;10.45;1.30;;;17.60;1.00;;;;;;5032544;28;20421;-33
2022/10/03 09:33:00;;;;;;;6.95;1.27;;;18.00;99.90;;;;;;5030251;28;20149;-34
2022/10/03 09:36:06;;;;;;;6.90;1.05;;;18.10;99.90;;;;;;5053951;28;20049;-33
2022/10/03 09:38:51;;;;;;;7.72;1.25;;;18.00;1.00;;;;;;5020460;28;20098;-35
2022/10/03 09:41:19;;;;;;;7.57;1.88;;;17.80;98.00;;;;;;5053836;28;20059;-33
2022/10/03 09:44:18;;;;;;;8.90;1.40;;;17.80;1.00;;;;;;5035792;28;20543;-33
2022/10/03 09:47:21;;;;;;;7.13;0.90;;;17.90;99.90;;;;;;5054397;28;20045;-33
2022/10/03 09:49:41;;;;;;;11.55;1.58;;;18.00;99.90;;;;;;5053768;28;20044;-32
2022/10/03 09:52:25;;;;;;;9.55;1.50;;;17.80;99.90;;;;;;5054268;28;20044;-32
2022/10/03 09:55:10;;;;;;;5.70;1.05;;;17.70;99.90;;;;;;5053374;28;20052;-32
2022/10/03 09:58:02;;;;;;;6.03;0.82;;;17.60;99.90;;;;;;5053537;28;20178;-33
2022/10/03 10:01:08;;;;;;;6.13;1.05;;;17.60;99.90;;;;;;5053452;28;20075;-32
2022/10/03 10:04:02;;;;;;;4.50;0.90;;;17.70;99.90;;;;;;5042607;28;20146;-33
2022/10/03 10:07:08;;;;;;;5.38;1.30;;;17.80;99.90;;;;;;5053380;28;20085;-32
2022/10/03 10:09:46;;;;;;;7.57;1.15;;;18.30;1.00;;;;;;5033673;28;20514;-32
2022/10/03 10:12:39;;;;;;;7.65;1.70;;;18.30;99.90;;;;;;5053165;28;20187;-32
2022/10/03 10:15:23;;;;;;;;;;;18.20;1.00;;;;;;5053553;28;20529;-32
2022/10/03 10:18:22;;;;;;;7.63;1.00;;;17.90;99.90;;;;;;5053206;28;19920;-33
2022/10/03 10:21:14;;;;;;;6.75;1.23;;;17.90;99.90;;;;;;5052547;28;20057;-32
2022/10/03 10:24:10;;;;;;;4.57;1.42;;;17.90;1.00;;;;;;5051997;28;20542;-32
2022/10/03 10:26:47;;;;;;;5.50;0.95;;;17.80;49.50;;;;;;5053124;28;20052;-32
2022/10/03 10:29:57;;;;;;;10.27;1.23;;;17.70;99.90;;;;;;5053119;28;20484;-32
2022/10/03 10:32:59;;;;;;;5.63;1.00;;;17.80;99.90;;;;;;5040688;28;20060;-32
2022/10/03 10:35:42;;;;;;;5.20;0.93;;;17.80;1.00;;;;;;5053064;28;20045;-32
2022/10/03 10:38:42;;;;;;;4.28;1.02;;;17.60;1.00;;;;;;5053389;28;20100;-31
2022/10/03 10:41:59;;;;;;;5.85;1.05;;;17.50;97.60;;;;;;5055781;28;20060;-32
2022/10/03 10:44:45;;;;;;;3.92;1.67;;;17.70;99.40;;;;;;5044531;28;20495;-31
2022/10/03 10:47:16;;;;;;;6.30;1.33;;;17.70;99.90;;;;;;5056516;28;20072;-31
2022/10/03 10:49:48;;;;;;;6.28;1.05;;;17.60;99.90;;;;;;5056877;28;20053;-32
2022/10/03 10:52:51;;;;;;;7.18;1.00;;;17.70;1.00;;;;;;5056191;28;20380;-32
2022/10/03 10:55:35;;;;;;;6.30;1.38;;;17.90;1.00;;;;;;5056383;28;20041;-32
2022/10/03 10:58:13;;;;;;;7.10;1.08;;;17.80;99.90;;;;;;5056438;28;20140;-31
2022/10/03 11:01:00;;;;;;;9.52;0.90;;;17.80;29.00;;;;;;5056388;28;20064;-31
2022/10/03 11:04:17;;;;;;;6.63;1.25;;;17.80;1.00;;;;;;5055726;28;20045;-31
2022/10/03 11:07:02;;;;;;;9.40;1.15;;;17.90;1.00;;;;;;5056328;28;20052;-31
2022/10/03 11:09:46;;;;;;;6.70;1.13;;;18.20;99.90;;;;;;5056248;28;20056;-31
2022/10/03 11:12:49;;;;;;;6.30;1.00;;;18.40;1.00;;;;;;5056198;28;20127;-31
2022/10/03 11:15:44;;;;;;;7.28;1.08;;;18.50;1.00;;;;;;5056101;28;20087;-31
2022/10/03 11:18:38;;;;;;;6.47;1.10;;;18.50;99.90;;;;;;5056029;28;20057;-31
2022/10/03 11:21:41;;;;;;;8.20;1.67;;;18.60;99.90;;;;;;5055981;28;20049;-32
2022/10/03 11:24:25;;;;;;;7.00;1.25;;;18.50;99.90;;;;;;5056129;28;20041;-31
2022/10/03 11:27:28;;;;;;;9.15;1.45;;;18.30;99.90;;;;;;5055822;28;20111;-30
2022/10/03 11:30:22;;;;;;;8.25;0.95;;;18.20;1.00;;;;;;5055396;28;20376;-31
2022/10/03 11:33:25;;;;;;;6.70;0.80;;;18.30;99.90;;;;;;5055806;28;20511;-31
2022/10/03 11:36:09;;;;;;;5.17;0.70;;;18.30;1.10;;;;;;5056571;28;20052;-31
2022/10/03 11:38:48;;;;;;;4.15;0.85;;;18.10;1.00;;;;;;5055522;28;20065;-30
2022/10/03 11:41:22;;;;;;;8.45;1.13;;;18.30;99.90;;;;;;5055675;28;20137;-30
2022/10/03 11:44:06;;;;;;;3.63;0.75;;;18.40;1.00;;;;;;5055754;28;20483;-32
2022/10/03 11:46:51;;;;;;;5.03;0.70;;;18.40;99.90;;;;;;5056136;28;20049;-32
2022/10/03 11:49:28;;;;;;;7.57;1.45;;;18.30;99.90;;;;;;5038188;28;20055;-31
2022/10/03 11:52:16;;;;;;;13.18;1.08;;;18.20;1.00;;;;;;5054774;28;20391;-30
2022/10/03 11:54:46;;;;;;;5.50;0.73;;;18.20;1.00;;;;;;5055300;28;20053;-30
2022/10/03 11:57:16;;;;;;;10.15;1.13;;;18.20;1.00;;;;;;5055298;28;20151;-31
2022/10/03 12:00:03;;;;;;;7.88;1.08;;;18.30;1.00;;;;;;5037668;28;20049;-31
2022/10/03 12:02:36;;;;;;;5.00;1.08;;;18.50;99.90;;;;;;5055500;28;20049;-30
2022/10/03 12:05:48;;;;;;;4.65;1.23;;;18.80;99.90;;;;;;5055770;28;20045;-30
2022/10/03 12:11:58;;;;;;;5.60;1.08;;;19.20;99.90;;;;;;5055372;28;20053;-30
2022/10/03 12:14:29;;;;;;;3.45;0.93;;;18.90;1.00;;;;;;5016413;28;20551;-30
2022/10/03 12:17:16;;;;;;;6.18;0.75;;;18.80;1.00;;;;;;5016640;28;20392;-30
2022/10/03 12:20:14;;;;;;;8.43;1.00;;;18.70;1.00;;;;;;5050298;28;20057;-30
2022/10/03 12:22:51;;;;;;;7.70;1.23;;;18.60;1.00;;;;;;5054836;28;20044;-30
2022/10/03 12:25:26;;;;;;;5.90;0.98;;;18.50;1.00;;;;;;5055083;28;20468;-30
2022/10/03 12:28:14;;;;;;;6.60;1.50;;;18.50;1.00;;;;;;5054720;28;20609;-30
2022/10/03 12:31:05;;;;;;;5.93;1.00;;;18.30;1.00;;;;;;5054681;28;20040;-29
2022/10/03 12:33:55;;;;;;;5.82;1.20;;;18.10;1.00;;;;;;5036697;28;20084;-29
2022/10/03 12:36:58;;;;;;;4.85;1.10;;;17.90;99.90;;;;;;5053595;28;20475;-30
2022/10/03 12:39:43;;;;;;;9.00;1.10;;;18.00;99.90;;;;;;5054470;28;20049;-29
2022/10/03 12:42:33;;;;;;;4.68;0.85;;;18.10;99.90;;;;;;5054554;28;20127;-30
2022/10/03 12:45:25;;;;;;;4.53;1.20;;;18.30;69.00;;;;;;5054640;28;20041;-30
2022/10/03 12:48:22;;;;;;;7.25;1.10;;;18.30;1.00;;;;;;5053198;28;20040;-29
2022/10/03 12:51:02;;;;;;;6.15;1.02;;;18.10;1.00;;;;;;5054355;28;20067;-30
2022/10/03 12:53:51;;;;;;;3.00;0.63;;;18.00;99.90;;;;;;5054506;28;20094;-29
2022/10/03 12:56:25;;;;;;;5.93;0.70;;;17.70;47.90;;;;;;5054218;28;20487;-29
2022/10/03 12:59:19;;;;;;;6.78;1.08;;;17.50;99.90;;;;;;5054458;28;20541;-29
2022/10/03 13:01:54;;;;;;;4.15;1.00;;;17.30;99.90;;;;;;5052526;28;20074;-29
2022/10/03 13:04:40;;;;;;;11.60;1.58;;;17.50;1.00;;;;;;5053623;28;20369;-29
2022/10/03 13:07:25;;;;;;;5.25;0.88;;;17.80;99.90;;;;;;5054635;28;20077;-29
2022/10/03 13:10:09;;;;;;;5.07;0.93;;;18.00;1.00;;;;;;5054606;28;20087;-29
2022/10/03 13:12:54;;;;;;;3.65;0.98;;;18.20;99.90;;;;;;5054284;28;20044;-28
2022/10/03 13:15:39;;;;;;;6.32;1.05;;;18.30;99.90;;;;;;5053795;28;20053;-29
2022/10/03 13:18:17;;;;;;;7.90;1.65;;;18.20;99.90;;;;;;5053872;28;20055;-29
2022/10/03 13:20:55;;;;;;;6.72;1.00;;;17.90;1.00;;;;;;5053851;28;20056;-29
2022/10/03 13:23:49;;;;;;;5.45;0.95;;;17.80;92.80;;;;;;5052821;28;20390;-30
2022/10/03 13:26:37;;;;;;;3.72;0.98;;;17.70;38.90;;;;;;5070307;28;20048;-29
2022/10/03 13:29:30;;;;;;;5.10;0.88;;;17.50;1.00;;;;;;5053713;28;20045;-29
2022/10/03 13:32:15;;;;;;;7.35;0.88;;;17.50;1.00;;;;;;5053612;28;20053;-29
2022/10/03 13:35:57;;;;;;;4.35;1.02;;;17.70;99.90;;;;;;5036381;28;20380;-29
2022/10/03 13:38:01;;;;;;;6.78;1.08;;;17.90;99.90;;;;;;5053646;28;20100;-28
2022/10/03 13:40:32;;;;;;;4.88;0.90;;;18.10;1.00;;;;;;5053591;28;20095;-29
2022/10/03 13:43:02;;;;;;;7.53;1.15;;;18.00;10.30;;;;;;5053527;28;20063;-29
2022/10/03 13:45:29;;;;;;;5.30;1.30;;;18.00;83.70;;;;;;5053819;28;20095;-30
2022/10/03 13:48:19;;;;;;;7.13;1.20;;;18.00;99.90;;;;;;5053798;28;20390;-28
2022/10/03 13:51:20;;;;;;;5.97;0.90;;;18.10;99.90;;;;;;5053229;28;20430;-29
2022/10/03 13:54:00;;;;;;;10.02;1.13;;;18.10;1.00;;;;;;5053996;28;20049;-29
2022/10/03 13:57:03;;;;;;;3.47;0.73;;;18.00;1.00;;;;;;5053465;28;20048;-28
2022/10/03 13:59:50;;;;;;;4.35;0.85;;;17.80;1.00;;;;;;5053502;28;20053;-29
2022/10/03 14:02:40;;;;;;;3.63;0.82;;;17.60;1.00;;;;;;5053473;28;20487;-28
2022/10/03 14:05:25;;;;;;;7.68;1.05;;;17.50;23.00;;;;;;5053310;28;20487;-28
2022/10/03 14:08:30;;;;;;;7.43;1.98;;;17.30;99.90;;;;;;5053389;28;20045;-28
2022/10/03 14:11:10;;;;;;;5.90;0.95;;;17.30;99.90;;;;;;5015008;28;20049;-29
2022/10/03 14:14:15;;;;;;;2.80;0.65;;;17.30;71.50;;;;;;5053315;28;20056;-28
2022/10/03 14:16:52;;;;;;;6.53;1.70;;;17.40;99.90;;;;;;5046364;28;20080;-29
2022/10/03 14:19:53;;;;;;;7.07;1.23;;;17.50;1.00;;;;;;5057772;28;20047;-29
2022/10/03 14:22:28;;;;;;;5.70;1.27;;;17.50;99.90;;;;;;5057346;28;20087;-28
2022/10/03 14:25:06;;;;;;;5.88;1.00;;;17.40;99.90;;;;;;5057106;28;20052;-28
2022/10/03 14:27:50;;;;;;;4.68;0.90;;;17.30;99.90;;;;;;5056314;28;20133;-29
2022/10/03 14:30:16;;;;;;;6.30;0.90;;;17.20;99.90;;;;;;5057289;28;20099;-28
2022/10/03 14:33:05;;;;;;;7.82;0.80;;;17.30;99.90;;;;;;5056920;28;20430;-28
2022/10/03 14:35:37;;;;;;;5.28;0.95;;;17.30;1.00;;;;;;5056883;28;20049;-28
2022/10/03 14:41:37;;;;;;;4.78;0.80;;;17.30;1.00;;;;;;5056725;28;20052;-28
2022/10/03 14:44:10;;;;;;;8.55;1.15;;;17.30;1.00;;;;;;5055602;28;20091;-28